Latest Weather Observations for Albury

IDV60801

Issued at 5:02 am EDT Tuesday 21 February 2017 (issued every 30 minutes, with the page automatically refreshed every 10 minutes)

About weather observations | Map of weather stations | Latest weather observations for VIC | Other Formats
Station Details ID: 072160 Name: ALBURY AIRPORT AWS Lat: -36.07 Lon: 146.95 Height: 163.5 m
Data from the previous 72 hours. | See also: Recent months at Albury
Date/Time
EDT
Temp
°C
App
Temp
°C
Dew
Point
°C
Rel
Hum
%
Delta-T
°C
Wind Press
QNH
hPa
Press
MSL
hPa
Rain since
9am
mm
Dir  Spd
km/h
Gust
km/h
Spd
kts
Gust
kts
21/05:00am 8.7 8.0 6.8 88 0.9 CALM 0 0 0 0 1018.9 1018.1 0.0
21/04:30am 8.6 7.8 6.4 86 1.0 CALM 0 0 0 0 1018.6 1017.8 0.0
21/04:00am 9.7 8.8 7.8 88 0.9 SSE 2 6 1 3 1018.5 1017.7 0.0
21/03:30am 10.1 9.6 7.9 86 1.1 CALM 0 0 0 0 1018.5 1017.7 0.0
21/03:00am 9.9 9.3 7.5 85 1.2 CALM 0 0 0 0 1018.5 1017.7 0.0
21/02:30am 10.2 9.4 8.0 86 1.1 SE 2 7 1 4 1018.3 1017.5 0.0
21/02:00am 10.6 9.7 7.8 83 1.4 S 2 7 1 4 1018.3 1017.5 0.0
21/01:30am 11.3 10.5 8.2 81 1.5 NW 2 9 1 5 1018.4 1017.6 0.0
21/01:00am 11.1 9.4 7.4 78 1.8 ESE 6 7 3 4 1018.3 1017.5 0.0
21/12:30am 11.9 10.3 7.8 76 2.0 SSE 6 7 3 4 1018.1 1017.3 0.0
21/12:00am 11.5 9.9 8.0 79 1.7 SSE 6 9 3 5 1018.2 1017.4 0.0
 
Date/Time
EDT
Temp
°C
App
Temp
°C
Dew
Point
°C
Rel
Hum
%
Delta-T
°C
Wind Press
QNH
hPa
Press
MSL
hPa
Rain since
9am
mm
Dir  Spd
km/h
Gust
km/h
Spd
kts
Gust
kts
20/11:30pm 12.2 10.4 8.1 76 2.0 ENE 7 9 4 5 1017.9 1017.1 0.0
20/11:00pm 12.2 11.8 8.3 77 1.9 CALM 0 6 0 3 1017.7 1016.9 0.0
20/10:30pm 13.1 12.5 7.5 69 2.8 CALM 0 0 0 0 1017.4 1016.6 0.0
20/10:00pm 14.2 13.8 8.2 67 3.0 CALM 0 0 0 0 1017.1 1016.3 0.0
20/09:30pm 14.5 14.0 8.0 65 3.3 CALM 0 0 0 0 1016.7 1015.9 0.0
20/09:00pm 15.4 13.8 6.4 55 4.4 ENE 4 6 2 3 1016.4 1015.6 0.0
20/08:30pm 17.2 15.6 6.4 49 5.4 NNW 4 7 2 4 1015.9 1015.1 0.0
20/08:00pm 18.5 16.6 4.7 40 6.7 NW 4 7 2 4 1015.4 1014.7 0.0
20/07:30pm 19.0 16.4 4.0 37 7.2 NW 7 9 4 5 1014.9 1014.2 0.0
20/07:00pm 20.5 18.0 4.9 36 7.7 WNW 7 9 4 5 1014.5 1013.8 0.0
20/06:30pm 19.3 16.2 5.4 40 6.9 WNW 11 17 6 9 1014.3 1013.6 0.0
20/06:00pm 19.5 15.1 4.8 38 7.2 WNW 17 24 9 13 1014.2 1013.5 0.0
20/05:30pm 20.8 16.7 4.4 34 8.0 SW 15 20 8 11 1013.8 1013.1 0.0
20/05:00pm 21.3 16.5 4.4 33 8.3 WSW 19 28 10 15 1013.7 1012.9 0.0
20/04:30pm 20.6 15.5 4.2 34 8.0 WSW 20 32 11 17 1013.6 1012.8 0.0
20/04:00pm 21.3 16.5 5.6 36 7.9 WSW 20 30 11 16 1013.6 1012.8 0.0
20/03:30pm 20.9 15.4 5.7 37 7.6 WSW 24 37 13 20 1013.8 1013.1 0.0
20/03:00pm 18.9 15.1 5.7 42 6.5 SW 15 24 8 13 1013.9 1013.2 0.0
20/02:30pm 18.9 14.6 5.4 41 6.6 SW 17 28 9 15 1014.0 1013.3 0.0
20/02:00pm 17.9 13.8 6.1 46 5.8 SW 17 32 9 17 1014.2 1013.5 0.0
20/01:30pm 17.3 14.0 6.5 49 5.4 WSW 13 24 7 13 1014.3 1013.6 0.0
20/01:00pm 16.4 12.4 6.8 53 4.8 WSW 17 26 9 14 1014.5 1013.8 0.0
20/12:30pm 16.5 12.2 7.2 54 4.7 W 19 28 10 15 1014.8 1014.1 0.0
20/12:00pm 15.6 11.7 7.1 57 4.2 W 17 22 9 12 1014.9 1014.2 0.0
20/11:30am 15.0 10.5 7.1 59 3.9 W 20 26 11 14 1014.9 1014.2 0.0
20/11:00am 15.0 11.8 8.5 65 3.3 WNW 15 24 8 13 1014.9 1014.2 0.0
20/10:30am 13.6 9.2 7.2 65 3.1 WNW 20 28 11 15 1015.1 1014.4 0.0
20/10:25am 14.5 10.6 8.7 68 3.0 W 19 26 10 14 1015.1 1014.4 0.0
20/10:11am 14.1 11.0 8.9 71 2.7 W 15 20 8 11 1014.9 1014.2 0.0
20/10:00am 13.2 9.9 8.1 71 2.5 W 15 24 8 13 1014.8 1014.1 0.0
20/09:30am 12.2 8.5 7.9 75 2.1 W 17 22 9 12 1014.7 1014.0 0.0
20/09:00am 11.0 8.1 8.1 82 1.4 WNW 13 20 7 11 1014.6 1013.9 1.0
20/08:31am 10.5 8.8 8.3 86 1.1 WNW 7 11 4 6 1014.3 1013.6 1.0
20/08:30am 10.3 8.4 7.7 84 1.3 WNW 7 11 4 6 1014.3 1013.6 1.0
20/08:00am 9.4 6.4 7.7 89 0.8 W 13 17 7 9 1014.1 1013.4 1.0
20/07:30am 9.2 7.6 8.6 96 0.3 NW 7 9 4 5 1013.6 1012.8 1.0
20/07:21am 8.8 7.7 8.4 97 0.2 WNW 4 9 2 5 1013.4 1012.6 1.0
20/07:18am 8.6 8.2 8.2 97 0.2 CALM 0 9 0 5 1013.4 1012.6 1.0
20/07:00am 7.6 6.9 6.9 95 0.3 CALM 0 0 0 0 1013.2 1012.4 1.0
20/06:30am 8.2 6.8 7.3 94 0.4 W 4 6 2 3 1012.6 1011.8 1.0
20/06:00am 8.8 6.9 7.7 93 0.5 NW 7 9 4 5 1012.2 1011.4 1.0
20/05:30am 8.7 6.8 7.6 93 0.5 NW 7 9 4 5 1012.0 1011.2 1.0
20/05:00am 8.9 8.4 8.0 94 0.4 CALM 0 0 0 0 1011.7 1010.9 1.0
20/04:30am 8.6 8.1 7.7 94 0.4 CALM 0 0 0 0 1011.5 1010.7 1.0
20/04:00am 9.1 6.9 8.0 93 0.5 WNW 9 11 5 6 1011.3 1010.5 1.0
20/03:30am 9.3 7.1 7.7 90 0.8 WNW 9 13 5 7 1011.2 1010.4 1.0
20/03:00am 10.0 9.8 8.9 93 0.5 CALM 0 0 0 0 1011.3 1010.5 1.0
20/02:30am 10.1 9.8 8.5 90 0.8 CALM 0 0 0 0 1011.3 1010.5 1.0
20/02:00am 10.3 8.9 8.7 90 0.8 SE 6 7 3 4 1011.4 1010.6 1.0
20/01:30am 10.4 9.2 8.2 86 1.1 NW 4 7 2 4 1011.4 1010.6 1.0
20/01:00am 10.9 9.4 9.0 88 1.0 NW 7 11 4 6 1011.3 1010.5 1.0
20/12:30am 11.3 9.4 9.0 86 1.2 NW 9 13 5 7 1011.3 1010.5 1.0
20/12:00am 11.3 9.8 9.2 87 1.1 WSW 7 11 4 6 1010.9 1010.1 1.0
 
Date/Time
EDT
Temp
°C
App
Temp
°C
Dew
Point
°C
Rel
Hum
%
Delta-T
°C
Wind Press
QNH
hPa
Press
MSL
hPa
Rain since
9am
mm
Dir  Spd
km/h
Gust
km/h
Spd
kts
Gust
kts
19/11:30pm 11.7 10.2 9.1 84 1.3 W 7 9 4 5 1011.0 1010.2 1.0
19/11:00pm 12.0 10.3 9.9 87 1.1 NW 9 13 5 7 1011.2 1010.4 1.0
19/10:30pm 12.0 10.9 9.9 87 1.1 N 6 9 3 5 1010.8 1010.0 1.0
19/10:00pm 12.0 8.7 9.7 86 1.2 W 17 20 9 11 1011.4 1010.6 1.0
19/09:30pm 12.2 10.3 10.4 89 0.9 WNW 11 17 6 9 1011.1 1010.3 1.0
19/09:00pm 12.8 9.3 10.2 84 1.4 W 19 24 10 13 1010.7 1009.9 1.0
19/08:30pm 14.6 10.8 9.0 69 2.9 WSW 19 28 10 15 1009.7 1008.9 1.0
19/08:00pm 14.6 9.7 8.5 67 3.1 WSW 24 35 13 19 1009.1 1008.4 0.8
19/07:40pm 14.9 6.7 8.4 65 3.3 W 41 67 22 36 1008.7 1008.0 0.8
19/07:35pm 17.3 11.1 6.2 48 5.5 WNW 28 67 15 36 1008.2 1007.4 0.8
19/07:30pm 19.2 13.8 2.6 33 7.7 WNW 20 32 11 17 1007.9 1007.1 0.8
19/07:00pm 19.7 14.4 3.0 33 7.9 WNW 20 32 11 17 1007.7 1006.9 0.6
19/06:30pm 20.9 14.5 3.2 31 8.5 NW 26 32 14 17 1007.7 1006.9 0.6
19/06:00pm 21.0 14.8 2.3 29 8.8 W 24 33 13 18 1007.9 1007.1 0.6
19/05:30pm 20.3 14.4 1.7 29 8.6 W 22 32 12 17 1008.0 1007.2 0.6
19/05:00pm 20.7 14.8 2.0 29 8.7 W 22 32 12 17 1008.1 1007.3 0.6
19/04:30pm 20.3 14.4 1.7 29 8.6 W 22 33 12 18 1008.3 1007.5 0.6
19/04:00pm 21.2 15.0 2.0 28 9.0 WSW 24 43 13 23 1008.5 1007.8 0.6
19/03:30pm 20.4 14.2 2.3 30 8.5 WNW 24 41 13 22 1008.8 1008.1 0.2
19/03:00pm 20.9 15.6 3.2 31 8.5 WNW 20 30 11 16 1009.2 1008.5 0.2
19/02:30pm 20.5 14.7 2.3 30 8.5 WSW 22 30 12 16 1009.6 1008.8 0.2
19/02:00pm 20.3 15.1 2.6 31 8.3 WNW 19 32 10 17 1010.0 1009.2 0.2
19/01:30pm 20.0 13.9 2.8 32 8.1 W 24 32 13 17 1010.3 1009.5 0.2
19/01:00pm 19.8 14.1 3.1 33 7.9 WSW 22 35 12 19 1010.6 1009.8 0.2
19/12:30pm 18.7 13.4 2.1 33 7.6 WNW 19 32 10 17 1011.1 1010.3 0.2
19/12:00pm 18.4 12.2 2.3 34 7.4 W 24 33 13 18 1011.4 1010.6 0.2
19/11:30am 19.0 13.9 3.2 35 7.4 WSW 19 32 10 17 1011.8 1011.0 0.0
19/11:00am 18.1 12.0 2.8 36 7.1 W 24 33 13 18 1011.9 1011.1 0.0
19/10:30am 18.4 12.7 2.7 35 7.3 W 22 32 12 17 1011.9 1011.1 0.0
19/10:00am 17.6 13.0 3.9 40 6.5 W 17 22 9 12 1011.8 1011.0 0.0
19/09:30am 16.5 14.0 4.5 45 5.7 S 7 13 4 7 1011.6 1010.8 0.0
19/09:00am 14.5 12.3 5.3 54 4.4 ENE 6 9 3 5 1011.7 1010.9 0.0
19/08:30am 12.7 10.4 4.7 58 3.7 ESE 6 7 3 4 1011.5 1010.7 0.0
19/08:00am 11.4 9.4 4.4 62 3.2 ESE 4 6 2 3 1011.3 1010.5 0.0
19/07:30am 8.9 6.3 4.3 73 2.0 ENE 7 9 4 5 1011.2 1010.4 0.0
19/07:00am 8.2 6.8 3.7 73 2.0 CALM 0 2 0 1 1010.7 1009.9 0.0
19/06:30am 8.7 7.4 4.3 74 1.9 CALM 0 0 0 0 1010.4 1009.6 0.0
19/06:00am 8.4 7.2 4.4 76 1.8 CALM 0 0 0 0 1010.3 1009.5 0.0
19/05:30am 8.7 7.4 3.9 72 2.1 CALM 0 0 0 0 1010.1 1009.3 0.0
19/05:00am 8.8 7.4 5.5 80 1.5 S 2 6 1 3 1010.0 1009.2 0.0
19/04:30am 8.9 7.4 2.9 66 2.6 CALM 0 6 0 3 1010.1 1009.3 0.0
19/04:00am 9.3 7.9 3.5 67 2.5 CALM 0 0 0 0 1010.1 1009.3 0.0
19/03:30am 10.1 8.6 2.9 61 3.1 CALM 0 0 0 0 1010.0 1009.2 0.0
19/03:00am 10.6 9.3 3.9 63 3.0 CALM 0 0 0 0 1010.1 1009.3 0.0
19/02:30am 10.3 8.8 3.1 61 3.1 CALM 0 0 0 0 1010.3 1009.5 0.0
19/02:00am 10.9 9.4 3.2 59 3.4 CALM 0 0 0 0 1010.4 1009.6 0.0
19/01:30am 11.8 10.3 3.1 55 3.9 CALM 0 0 0 0 1010.5 1009.7 0.0
19/01:00am 11.7 10.1 2.5 53 4.0 CALM 0 0 0 0 1010.6 1009.8 0.0
19/12:30am 13.6 10.7 2.5 47 4.9 ENE 7 7 4 4 1010.5 1009.7 0.0
19/12:00am 14.4 11.6 2.3 44 5.4 E 6 9 3 5 1010.3 1009.5 0.0
 
Date/Time
EDT
Temp
°C
App
Temp
°C
Dew
Point
°C
Rel
Hum
%
Delta-T
°C
Wind Press
QNH
hPa
Press
MSL
hPa
Rain since
9am
mm
Dir  Spd
km/h
Gust
km/h
Spd
kts
Gust
kts
18/11:30pm 15.9 12.0 1.2 37 6.5 SW 11 17 6 9 1010.2 1009.4 0.0
18/11:00pm 16.1 12.3 1.8 38 6.4 WSW 11 17 6 9 1010.0 1009.2 0.0
18/10:30pm 16.6 12.4 1.9 37 6.6 SW 13 17 7 9 1010.0 1009.2 0.0
18/10:00pm 16.0 12.5 1.3 37 6.5 WSW 9 13 5 7 1010.1 1009.3 0.0
18/09:30pm 15.9 11.9 0.5 35 6.7 W 11 13 6 7 1009.8 1009.0 0.0
18/09:00pm 17.5 13.1 0.6 32 7.5 WSW 13 19 7 10 1009.6 1008.8 0.0
18/08:30pm 19.2 13.7 0.8 29 8.3 WSW 19 30 10 16 1009.4 1008.6 0.0
18/08:00pm 19.7 14.6 0.7 28 8.6 WSW 17 26 9 14 1009.0 1008.3 0.0
18/07:30pm 20.8 14.7 0.6 26 9.2 W 22 32 12 17 1008.6 1007.9 0.0
18/07:00pm 21.7 15.4 1.4 26 9.4 W 24 32 13 17 1008.2 1007.4 0.0
18/06:30pm 22.4 16.5 1.4 25 9.8 WSW 22 33 12 18 1008.0 1007.2 0.0
18/06:00pm 22.9 16.9 1.3 24 10.1 W 22 35 12 19 1008.0 1007.2 0.0
18/05:30pm 23.0 17.2 2.5 26 9.8 WSW 22 33 12 18 1007.8 1007.0 0.0
18/05:00pm 23.8 18.1 2.6 25 10.3 WSW 22 35 12 19 1007.8 1007.0 0.0
18/04:30pm 23.0 15.7 2.5 26 9.8 W 30 43 16 23 1007.9 1007.1 0.0
18/04:00pm 23.1 16.8 3.6 28 9.6 W 26 37 14 20 1008.0 1007.2 0.0
18/03:30pm 23.5 18.0 4.0 28 9.6 WNW 22 35 12 19 1008.2 1007.4 0.0
18/03:00pm 24.0 17.8 4.4 28 9.8 WNW 26 41 14 22 1008.4 1007.7 0.0
18/02:41pm 23.6 17.3 4.0 28 9.7 W 26 43 14 23 1008.4 1007.7 0.0
18/02:30pm 24.7 19.4 5.0 28 10.0 WNW 22 35 12 19 1008.4 1007.7 0.0
18/02:00pm 23.5 17.1 5.4 31 9.2 WNW 28 43 15 23 1008.4 1007.7 0.0
18/01:30pm 23.5 17.0 4.5 29 9.5 WNW 28 39 15 21 1008.4 1007.7 0.0
18/01:00pm 22.9 16.7 4.4 30 9.2 W 26 39 14 21 1008.4 1007.7 0.0
18/12:30pm 23.0 17.8 5.4 32 8.9 W 22 32 12 17 1008.7 1008.0 0.0
18/12:00pm 23.1 17.1 7.2 36 8.3 W 28 39 15 21 1008.9 1008.2 0.0
18/11:30am 22.6 17.7 8.3 40 7.6 W 24 32 13 17 1009.0 1008.3 0.0
18/11:00am 21.9 17.6 9.4 45 6.8 W 22 32 12 17 1009.1 1008.4 0.0
18/10:30am 20.9 17.7 10.1 50 5.9 WNW 17 26 9 14 1009.1 1008.4 0.0
18/10:00am 20.7 18.7 11.6 56 5.1 W 13 22 7 12 1009.2 1008.5 0.0
18/09:30am 18.9 16.1 11.2 61 4.2 W 17 22 9 12 1009.5 1008.7 0.0
18/09:00am 18.8 16.4 11.4 62 4.1 WSW 15 19 8 10 1009.4 1008.6 1.0
18/08:30am 17.6 16.5 10.5 63 3.8 W 7 9 4 5 1009.0 1008.3 1.0
18/08:00am 16.3 16.4 10.2 67 3.2 CALM 0 0 0 0 1008.7 1008.0 1.0
18/07:30am 15.3 15.4 10.1 71 2.7 CALM 0 0 0 0 1008.3 1007.5 1.0
18/07:00am 14.1 12.6 9.3 73 2.5 NW 7 9 4 5 1008.1 1007.3 1.0
18/06:30am 14.5 13.2 9.3 71 2.7 NNE 6 7 3 4 1007.8 1007.0 1.0
18/06:00am 14.3 13.0 9.1 71 2.7 E 6 9 3 5 1007.3 1006.5 1.0
18/05:30am 15.3 15.1 9.0 66 3.2 CALM 0 4 0 2 1007.0 1006.2 1.0

Other Formats:

Comma delimited format used in spreadsheet applications
http://www.bom.gov.au/fwo/IDV60801/IDV60801.95896.axf

JavaScript Object Notation format (JSON) in row-major order
http://www.bom.gov.au/fwo/IDV60801/IDV60801.95896.json